Time;durP1;ratioP1;P1;durP2;ratioP2;P2;SDS_P1;SDS_P2;PMS_P1;PMS_P2;Temp;Humidity;BMP_temperature;BMP_pressure;BME280_temperature;BME280_humidity;BME280_pressure;Samples;Min_cycle;Max_cycle;Signal;HPM_P1;HPM_P2
2021/12/04 00:01:45;;;;;;;10.18;8.20;;;;;;;4.80;100.00;99880.94;10401673;28;20052;-64
2021/12/04 00:07:09;;;;;;;9.63;8.30;;;;;;;4.78;100.00;99877.66;10384117;28;20049;-64
2021/12/04 00:12:32;;;;;;;14.07;9.27;;;;;;;4.80;100.00;99870.63;10412750;28;20046;-65
2021/12/04 00:17:56;;;;;;;14.05;10.18;;;;;;;4.75;100.00;99862.34;10399925;28;20088;-64
2021/12/04 00:23:18;;;;;;;11.95;10.02;;;;;;;4.81;100.00;99864.53;10413282;28;20046;-64
2021/12/04 00:28:40;;;;;;;14.38;10.38;;;;;;;4.82;100.00;99858.47;10412792;28;20045;-64
2021/12/04 00:34:02;;;;;;;13.88;11.68;;;;;;;4.81;100.00;99856.00;10413875;28;20064;-65
2021/12/04 00:50:45;;;;;;;14.85;11.90;;;;;;;4.82;100.00;99853.31;10413539;28;20050;-65
2021/12/04 00:56:07;;;;;;;16.52;11.60;;;;;;;4.87;100.00;99850.50;10398305;28;20050;-64
2021/12/04 01:01:28;;;;;;;16.00;12.20;;;;;;;4.86;100.00;99854.00;10412740;28;20050;-64
2021/12/04 01:06:51;;;;;;;15.65;11.35;;;;;;;4.85;100.00;99847.97;10365729;28;20583;-65
2021/12/04 01:12:13;;;;;;;16.10;11.35;;;;;;;4.83;100.00;99842.06;10411913;28;20053;-64
2021/12/04 01:17:35;;;;;;;16.08;12.13;;;;;;;4.84;100.00;99851.47;10371069;28;20053;-65
2021/12/04 01:22:56;;;;;;;18.88;11.82;;;;;;;4.83;100.00;99846.41;10402234;28;20055;-65
2021/12/04 01:28:18;;;;;;;17.83;12.00;;;;;;;4.79;100.00;99847.50;10397388;28;20057;-65
2021/12/04 01:33:40;;;;;;;18.98;12.57;;;;;;;4.83;100.00;99843.81;10410855;28;20046;-65
2021/12/04 01:39:04;;;;;;;17.20;12.75;;;;;;;4.82;100.00;99844.75;10397038;28;20520;-65
2021/12/04 01:44:26;;;;;;;16.70;12.60;;;;;;;4.77;100.00;99850.19;10410868;28;20053;-65
2021/12/04 01:49:51;;;;;;;18.52;13.30;;;;;;;4.75;100.00;99846.84;10394350;28;20049;-64
2021/12/04 01:55:12;;;;;;;16.50;12.95;;;;;;;4.79;100.00;99838.03;10396872;28;20057;-64
2021/12/04 02:00:37;;;;;;;19.10;13.32;;;;;;;4.77;100.00;99834.69;10383350;28;20062;-64
2021/12/04 02:05:59;;;;;;;18.70;13.33;;;;;;;4.79;100.00;99837.16;10409597;28;20081;-65
2021/12/04 02:11:21;;;;;;;18.70;13.82;;;;;;;4.80;100.00;99834.50;10409492;28;20045;-65
2021/12/04 02:16:43;;;;;;;20.05;13.23;;;;;;;4.78;100.00;99828.59;10409056;28;20057;-64
2021/12/04 02:22:04;;;;;;;18.48;12.95;;;;;;;4.77;100.00;99829.53;10395596;28;20052;-65
2021/12/04 02:27:26;;;;;;;17.52;13.68;;;;;;;4.77;100.00;99823.50;10410439;28;20063;-65
2021/12/04 02:32:49;;;;;;;16.65;12.48;;;;;;;4.81;100.00;99825.81;10415121;28;20045;-64
2021/12/04 02:38:11;;;;;;;20.33;11.50;;;;;;;4.79;100.00;99819.94;10363825;28;20513;-64
2021/12/04 02:43:34;;;;;;;17.10;11.15;;;;;;;4.72;100.00;99805.72;10392241;28;20049;-64
2021/12/04 02:48:56;;;;;;;18.92;11.88;;;;;;;4.76;100.00;99794.31;10417543;28;20083;-64
2021/12/04 02:54:18;;;;;;;17.85;11.80;;;;;;;4.74;100.00;99788.41;10402837;28;20065;-64
2021/12/04 02:59:40;;;;;;;18.75;12.40;;;;;;;4.78;100.00;99774.41;10399438;28;20041;-64
2021/12/04 03:05:06;;;;;;;18.00;11.88;;;;;;;4.76;100.00;99771.06;10403158;28;20060;-65
2021/12/04 03:10:28;;;;;;;18.95;12.48;;;;;;;4.79;100.00;99767.47;10410535;28;20057;-65
2021/12/04 03:15:57;;;;;;;17.02;11.95;;;;;;;4.74;100.00;99767.75;10402392;28;20053;-64
2021/12/04 03:21:20;;;;;;;15.77;10.93;;;;;;;4.84;100.00;99763.69;10416629;28;20049;-64
2021/12/04 03:26:43;;;;;;;16.23;11.32;;;;;;;4.76;100.00;99755.59;10407047;28;20052;-64
2021/12/04 03:43:20;;;;;;;15.57;11.00;;;;;;;4.80;100.00;99741.56;10399581;28;20060;-65
2021/12/04 03:54:04;;;;;;;14.57;11.30;;;;;;;4.78;100.00;99733.09;10414160;28;20052;-65
2021/12/04 03:59:26;;;;;;;15.43;11.35;;;;;;;4.78;100.00;99733.09;10415240;28;20053;-64
2021/12/04 04:04:47;;;;;;;17.35;12.02;;;;;;;4.81;100.00;99732.09;10414172;28;20402;-64
2021/12/04 04:10:09;;;;;;;18.60;12.63;;;;;;;4.75;100.00;99722.94;10414965;28;20053;-65
2021/12/04 04:15:31;;;;;;;19.80;12.75;;;;;;;4.77;100.00;99720.25;10413212;28;20406;-65
2021/12/04 04:20:53;;;;;;;20.90;12.70;;;;;;;4.86;100.00;99710.22;10413235;28;20045;-64
2021/12/04 04:26:14;;;;;;;20.05;13.25;;;;;;;4.80;100.00;99714.94;10414020;28;20737;-65
2021/12/04 04:31:52;;;;;;;17.70;12.93;;;;;;;4.86;100.00;99709.41;10413317;28;20049;-65
2021/12/04 04:37:22;;;;;;;20.00;14.07;;;;;;;4.80;100.00;99708.00;10413047;28;20509;-65
2021/12/04 05:00:12;;;;;;;19.90;14.18;;;;;;;4.89;100.00;99729.88;10411607;28;20049;-65
2021/12/04 05:11:22;;;;;;;23.25;15.27;;;;;;;4.88;100.00;99734.22;10410336;28;20093;-64
2021/12/04 05:16:50;;;;;;;22.58;15.48;;;;;;;4.88;100.00;99723.88;10400001;28;20079;-64
2021/12/04 05:22:14;;;;;;;23.63;15.98;;;;;;;4.90;100.00;99721.19;10397014;28;20055;-65
2021/12/04 05:27:36;;;;;;;24.02;15.85;;;;;;;4.85;100.00;99724.06;10411121;28;20049;-64
2021/12/04 05:32:58;;;;;;;20.75;15.15;;;;;;;4.89;100.00;99720.38;10396927;28;20099;-65
2021/12/04 05:38:20;;;;;;;23.75;16.95;;;;;;;4.93;100.00;99721.88;10397028;28;20076;-65
2021/12/04 05:43:43;;;;;;;25.70;17.13;;;;;;;4.97;100.00;99707.84;10411059;28;20045;-65
2021/12/04 05:49:13;;;;;;;29.20;17.75;;;;;;;4.99;100.00;99711.16;10410217;28;20053;-65
2021/12/04 06:00:06;;;;;;;27.10;17.38;;;;;;;5.00;100.00;99710.25;10410676;28;20060;-65
2021/12/04 06:05:29;;;;;;;26.30;17.95;;;;;;;5.01;100.00;99706.75;10396688;28;20053;-65
2021/12/04 06:10:52;;;;;;;27.25;19.02;;;;;;;4.91;100.00;99707.38;10356970;28;20077;-64
2021/12/04 06:16:14;;;;;;;28.60;19.40;;;;;;;4.93;100.00;99706.38;10395418;28;20057;-64
2021/12/04 06:27:16;;;;;;;30.50;20.05;;;;;;;5.03;100.00;99704.91;10410120;28;20064;-65
2021/12/04 06:32:38;;;;;;;29.70;20.83;;;;;;;4.97;100.00;99702.66;10381757;28;20050;-65
2021/12/04 06:38:00;;;;;;;32.20;20.58;;;;;;;5.01;100.00;99709.31;10377959;28;20072;-65
2021/12/04 06:43:28;;;;;;;31.55;21.17;;;;;;;5.01;100.00;99703.34;10423038;28;20722;-65
2021/12/04 06:49:02;;;;;;;32.72;20.75;;;;;;;5.01;100.00;99704.16;10425432;28;20065;-65
2021/12/04 06:54:27;;;;;;;32.35;20.83;;;;;;;4.96;100.00;99710.53;10418248;28;20068;-65
2021/12/04 06:59:53;;;;;;;32.63;22.25;;;;;;;4.94;100.00;99718.38;10409956;28;20061;-65
2021/12/04 07:05:15;;;;;;;;;;;;;;;4.95;100.00;99709.69;10409616;28;20512;-65
2021/12/04 07:10:37;;;;;;;35.28;21.73;;;;;;;4.97;100.00;99712.19;10412952;28;19921;-65
2021/12/04 07:16:04;;;;;;;32.75;21.13;;;;;;;4.97;100.00;99712.19;10417105;28;20057;-64
2021/12/04 07:21:26;;;;;;;36.50;22.95;;;;;;;5.03;100.00;99709.22;10416346;28;20045;-64
2021/12/04 07:26:48;;;;;;;36.88;23.45;;;;;;;5.07;100.00;99714.13;10416884;28;20057;-65
2021/12/04 07:32:09;;;;;;;35.38;23.50;;;;;;;4.94;100.00;99708.03;10415616;28;20076;-65
2021/12/04 07:37:31;;;;;;;40.00;23.88;;;;;;;4.98;100.00;99719.00;10401623;28;20041;-65
2021/12/04 07:42:53;;;;;;;43.97;23.60;;;;;;;4.95;100.00;99704.50;10415299;28;20052;-64
2021/12/04 07:48:14;;;;;;;38.80;24.48;;;;;;;4.93;100.00;99696.06;10414864;28;20050;-65
2021/12/04 07:53:37;;;;;;;46.78;25.40;;;;;;;5.00;100.00;99692.16;10401459;28;20553;-65
2021/12/04 07:58:59;;;;;;;38.35;23.63;;;;;;;5.01;100.00;99698.19;10373988;28;20062;-65
2021/12/04 08:04:21;;;;;;;41.53;24.73;;;;;;;5.01;100.00;99693.84;10391000;28;20049;-65
2021/12/04 08:09:42;;;;;;;37.47;23.48;;;;;;;4.97;100.00;99686.38;10401553;28;20049;-65
2021/12/04 08:15:06;;;;;;;39.80;24.42;;;;;;;5.16;100.00;99685.16;10413875;28;20065;-65
2021/12/04 08:20:28;;;;;;;36.15;23.60;;;;;;;5.02;100.00;99690.31;10413387;28;20053;-64
2021/12/04 08:25:50;;;;;;;35.17;22.70;;;;;;;5.05;100.00;99687.56;10424829;28;20199;-62
2021/12/04 08:31:11;;;;;;;35.00;22.20;;;;;;;5.02;100.00;99680.00;10436762;28;20053;-65
2021/12/04 08:36:33;;;;;;;38.92;23.92;;;;;;;5.08;100.00;99668.47;10411833;28;20469;-66
2021/12/04 08:41:56;;;;;;;37.13;23.13;;;;;;;5.05;100.00;99664.31;10374134;28;20054;-64
2021/12/04 08:47:18;;;;;;;40.33;23.90;;;;;;;5.05;100.00;99669.50;10372036;28;20064;-66
2021/12/04 08:52:43;;;;;;;36.13;22.23;;;;;;;5.11;100.00;99670.88;10392757;28;20046;-66
2021/12/04 08:58:07;;;;;;;38.45;22.67;;;;;;;5.10;100.00;99675.19;10387375;28;20429;-66
2021/12/04 09:03:33;;;;;;;34.30;21.60;;;;;;;5.09;100.00;99681.31;10393519;28;20051;-66
2021/12/04 09:08:55;;;;;;;34.53;20.75;;;;;;;5.01;100.00;99687.84;10402754;28;20148;-66
2021/12/04 09:14:23;;;;;;;30.33;18.95;;;;;;;5.06;100.00;99686.66;10398247;28;20054;-65
2021/12/04 09:19:46;;;;;;;31.75;19.67;;;;;;;4.99;100.00;99680.19;10403372;28;20048;-64
2021/12/04 09:25:16;;;;;;;33.42;21.42;;;;;;;5.08;100.00;99673.63;10408829;28;20057;-65
2021/12/04 09:36:45;;;;;;;44.85;25.15;;;;;;;5.00;100.00;99673.28;10387077;28;20403;-64
2021/12/04 10:17:07;;;;;;;43.05;22.67;;;;;;;5.08;100.00;99627.16;10402450;28;20053;-65
2021/12/04 10:22:12;;;;;;;53.17;23.92;;;;;;;5.04;100.00;99621.34;10368861;28;20054;-65
2021/12/04 10:33:19;;;;;;;45.72;23.88;;;;;;;5.19;100.00;99610.06;10408697;28;20363;-66
2021/12/04 10:38:43;;;;;;;45.25;23.75;;;;;;;5.14;100.00;99601.78;10408119;28;20076;-64
2021/12/04 10:44:11;;;;;;;43.20;23.10;;;;;;;5.10;100.00;99592.53;10398157;28;20042;-64
2021/12/04 10:50:28;;;;;;;47.95;25.48;;;;;;;5.17;100.00;99587.81;10416046;28;20061;-64
2021/12/04 11:07:20;;;;;;;46.92;23.70;;;;;;;5.27;100.00;99574.25;10415349;28;20103;-63
2021/12/04 11:35:00;;;;;;;44.25;23.42;;;;;;;5.29;100.00;99541.41;10414256;28;20063;-63
2021/12/04 11:41:21;;;;;;;43.20;22.65;;;;;;;5.35;100.00;99522.94;10412601;28;20053;-64
2021/12/04 11:46:45;;;;;;;35.78;20.58;;;;;;;5.44;100.00;99522.34;10414272;28;20049;-64
2021/12/04 11:52:17;;;;;;;39.78;20.67;;;;;;;5.24;100.00;99520.19;10413776;28;20481;-64
2021/12/04 11:57:39;;;;;;;37.40;20.05;;;;;;;5.41;100.00;99517.34;10394109;28;20045;-64
2021/12/04 12:03:10;;;;;;;31.63;19.30;;;;;;;5.45;100.00;99507.69;10394550;28;20532;-64
2021/12/04 12:08:36;;;;;;;35.13;18.85;;;;;;;5.53;100.00;99495.88;10403223;28;20382;-64
2021/12/04 12:14:12;;;;;;;30.92;17.35;;;;;;;5.56;100.00;99487.94;10410365;28;20068;-64
2021/12/04 12:19:42;;;;;;;28.52;16.25;;;;;;;5.67;100.00;99488.09;10413510;28;20132;-65
2021/12/04 12:25:24;;;;;;;29.35;16.05;;;;;;;5.61;100.00;99496.22;10411446;28;20057;-65
2021/12/04 12:36:31;;;;;;;26.88;15.77;;;;;;;5.68;100.00;99483.72;10409288;28;20054;-65
2021/12/04 12:41:56;;;;;;;25.05;15.32;;;;;;;5.65;100.00;99474.44;10411076;28;20085;-64
2021/12/04 12:47:18;;;;;;;23.67;14.73;;;;;;;5.65;100.00;99463.25;10396088;28;20649;-64
2021/12/04 12:52:43;;;;;;;26.67;15.52;;;;;;;5.63;100.00;99465.94;10404267;28;20045;-64
2021/12/04 12:58:21;;;;;;;24.73;14.52;;;;;;;5.59;100.00;99443.00;10412191;28;20053;-64
2021/12/04 13:15:33;;;;;;;29.58;15.38;;;;;;;5.61;100.00;99410.94;10400610;28;20045;-64
2021/12/04 13:21:00;;;;;;;26.70;16.13;;;;;;;5.51;100.00;99404.75;10392741;28;21572;-64
2021/12/04 13:26:28;;;;;;;31.23;16.80;;;;;;;5.54;100.00;99389.00;10386547;28;20056;-64
2021/12/04 13:31:57;;;;;;;30.60;17.55;;;;;;;5.57;100.00;99386.22;10389283;28;20048;-64
2021/12/04 13:37:25;;;;;;;30.55;17.25;;;;;;;5.59;100.00;99375.81;10390492;28;20494;-64
2021/12/04 13:42:48;;;;;;;27.75;16.25;;;;;;;5.64;100.00;99369.38;10390836;28;20628;-64
2021/12/04 13:48:10;;;;;;;31.05;16.05;;;;;;;5.68;100.00;99368.22;10393889;28;20049;-64
2021/12/04 13:53:35;;;;;;;27.02;16.17;;;;;;;5.57;100.00;99365.53;10386021;28;20056;-65
2021/12/04 13:59:00;;;;;;;21.77;15.77;;;;;;;5.53;100.00;99371.84;10399702;28;20060;-64
2021/12/04 14:04:22;;;;;;;28.63;16.42;;;;;;;5.61;100.00;99374.75;10385662;28;20045;-65
2021/12/04 14:09:44;;;;;;;25.48;15.38;;;;;;;5.69;100.00;99380.22;10414880;28;20053;-64
2021/12/04 14:15:10;;;;;;;25.50;14.80;;;;;;;5.54;100.00;99362.34;10399328;28;20064;-64
2021/12/04 14:20:35;;;;;;;26.92;14.80;;;;;;;5.68;100.00;99367.41;10413014;28;20061;-63
2021/12/04 14:26:02;;;;;;;27.90;15.68;;;;;;;5.55;100.00;99374.34;10422617;28;20045;-64
2021/12/04 14:31:24;;;;;;;29.77;16.42;;;;;;;5.59;100.00;99365.47;10408165;28;20132;-64
2021/12/04 14:36:46;;;;;;;23.75;15.98;;;;;;;5.60;100.00;99372.28;10417216;28;20068;-64
2021/12/04 14:42:13;;;;;;;26.38;15.77;;;;;;;5.56;100.00;99374.22;10423177;28;20052;-64
2021/12/04 14:47:41;;;;;;;24.30;17.00;;;;;;;5.56;100.00;99376.00;10410854;28;20486;-64
2021/12/04 14:53:06;;;;;;;25.25;17.33;;;;;;;5.65;100.00;99391.72;10422061;28;20049;-64
2021/12/04 14:58:28;;;;;;;27.83;17.27;;;;;;;5.54;100.00;99383.03;10418157;28;20049;-64
2021/12/04 15:03:58;;;;;;;21.90;16.52;;;;;;;5.49;100.00;99385.94;10416177;28;20041;-64
2021/12/04 15:09:19;;;;;;;21.73;15.45;;;;;;;5.50;100.00;99387.59;10413527;28;20126;-64
2021/12/04 15:14:41;;;;;;;25.58;15.82;;;;;;;5.60;100.00;99391.19;10413780;28;20064;-64
2021/12/04 15:20:11;;;;;;;17.10;10.60;;;;;;;5.62;100.00;99381.59;10408282;28;20356;-64
2021/12/04 15:25:36;;;;;;;19.42;14.23;;;;;;;5.41;100.00;99390.75;10420865;28;20633;-64
2021/12/04 15:30:59;;;;;;;18.03;13.60;;;;;;;5.51;100.00;99378.91;10387558;28;20049;-65
2021/12/04 15:36:23;;;;;;;17.48;13.68;;;;;;;5.57;100.00;99375.88;10403331;28;20053;-65
2021/12/04 15:41:59;;;;;;;21.52;13.75;;;;;;;5.54;100.00;99378.66;10387390;28;20148;-64
2021/12/04 15:47:39;;;;;;;16.40;12.55;;;;;;;5.41;100.00;99370.09;10384693;28;20140;-64
2021/12/04 15:53:08;;;;;;;14.77;11.82;;;;;;;5.43;100.00;99372.59;10394624;28;20410;-64
2021/12/04 15:58:33;;;;;;;14.07;10.60;;;;;;;5.36;100.00;99368.75;10390850;28;20047;-65
2021/12/04 16:03:54;;;;;;;14.45;10.80;;;;;;;5.40;100.00;99381.34;10395990;28;20060;-65
2021/12/04 16:09:28;;;;;;;13.10;10.30;;;;;;;5.27;100.00;99369.38;10398867;28;20056;-64
2021/12/04 16:14:55;;;;;;;12.07;9.27;;;;;;;5.30;100.00;99359.66;10369074;28;20605;-64
2021/12/04 16:20:19;;;;;;;14.60;10.93;;;;;;;5.22;100.00;99350.75;10395225;28;20045;-64
2021/12/04 16:25:41;;;;;;;15.63;10.55;;;;;;;5.20;100.00;99343.13;10414862;28;20056;-64
2021/12/04 16:37:02;;;;;;;16.08;11.75;;;;;;;5.19;100.00;99362.13;10395409;28;20144;-64
2021/12/04 16:42:24;;;;;;;18.02;12.23;;;;;;;5.27;100.00;99393.44;10406875;28;20064;-64
2021/12/04 16:48:08;;;;;;;16.10;12.15;;;;;;;5.15;100.00;99404.56;10408317;28;20061;-64
2021/12/04 16:59:17;;;;;;;16.73;10.40;;;;;;;5.17;100.00;99405.31;10414256;28;20057;-65
2021/12/04 17:04:40;;;;;;;13.82;10.38;;;;;;;5.18;100.00;99401.78;10411602;28;20300;-63
2021/12/04 17:10:03;;;;;;;15.13;9.25;;;;;;;5.10;100.00;99409.19;10393072;28;20415;-65
2021/12/04 17:15:25;;;;;;;11.50;9.35;;;;;;;4.93;100.00;99409.47;10397513;28;20041;-63
2021/12/04 17:20:50;;;;;;;12.32;8.50;;;;;;;4.94;100.00;99416.31;10405102;28;20390;-64
2021/12/04 17:26:12;;;;;;;9.77;7.97;;;;;;;4.90;100.00;99412.25;10410985;28;20498;-64
2021/12/04 17:31:34;;;;;;;14.38;9.27;;;;;;;4.86;100.00;99410.78;10395722;28;20080;-64
2021/12/04 17:36:56;;;;;;;11.77;9.27;;;;;;;4.73;100.00;99409.91;10413689;28;20136;-64
2021/12/04 17:42:17;;;;;;;11.95;8.90;;;;;;;4.81;100.00;99418.00;10400376;28;20057;-65
2021/12/04 17:47:46;;;;;;;12.07;8.05;;;;;;;4.64;100.00;99416.59;10393914;28;20045;-64
2021/12/04 17:53:09;;;;;;;10.32;7.85;;;;;;;4.52;100.00;99423.34;10422631;28;20045;-65
2021/12/04 17:58:31;;;;;;;13.93;8.73;;;;;;;4.45;100.00;99431.56;10395335;28;20065;-65
2021/12/04 18:03:53;;;;;;;12.13;7.90;;;;;;;4.34;100.00;99431.41;10395029;28;20084;-65
2021/12/04 18:09:16;;;;;;;9.52;6.68;;;;;;;4.21;100.00;99440.81;10400147;28;20212;-64
2021/12/04 18:14:40;;;;;;;8.73;6.75;;;;;;;4.18;100.00;99446.97;10393583;28;20112;-65
2021/12/04 18:20:05;;;;;;;9.93;7.15;;;;;;;4.13;100.00;99438.72;10402468;28;20061;-65
2021/12/04 18:25:26;;;;;;;8.23;6.63;;;;;;;3.84;100.00;99446.50;10409258;28;20056;-65
2021/12/04 18:30:51;;;;;;;5.95;4.93;;;;;;;3.71;100.00;99455.06;10405235;28;20050;-65
2021/12/04 18:36:12;;;;;;;7.00;4.90;;;;;;;3.38;100.00;99455.25;10420850;28;20064;-65
2021/12/04 18:41:34;;;;;;;5.97;4.88;;;;;;;3.35;100.00;99452.03;10401357;28;20070;-65
2021/12/04 18:46:56;;;;;;;6.65;5.38;;;;;;;3.05;100.00;99457.19;10386561;28;20057;-66
2021/12/04 18:52:18;;;;;;;7.50;5.97;;;;;;;2.88;100.00;99467.59;10407957;28;20493;-66
2021/12/04 18:57:39;;;;;;;8.82;6.68;;;;;;;2.73;100.00;99464.19;10408610;28;20053;-66
2021/12/04 19:03:03;;;;;;;9.48;7.28;;;;;;;2.58;100.00;99467.59;10390173;28;20045;-66
2021/12/04 19:08:25;;;;;;;10.50;7.38;;;;;;;2.46;100.00;99471.66;10400461;28;20080;-66
2021/12/04 19:13:49;;;;;;;9.98;7.47;;;;;;;2.54;100.00;99466.09;10401272;28;20132;-66
2021/12/04 19:19:11;;;;;;;12.05;8.73;;;;;;;2.35;100.00;99468.00;10417544;28;20077;-66
2021/12/04 19:24:33;;;;;;;12.52;8.32;;;;;;;2.35;100.00;99462.84;10390785;28;20413;-66
2021/12/04 19:29:55;;;;;;;13.25;9.43;;;;;;;2.19;100.00;99470.56;10413594;28;20422;-66
2021/12/04 19:35:31;;;;;;;12.55;8.82;;;;;;;2.17;100.00;99466.41;10398928;28;20041;-66
2021/12/04 19:52:16;;;;;;;12.65;9.43;;;;;;;1.90;100.00;99466.09;10410284;28;20505;-67
2021/12/04 19:57:43;;;;;;;16.02;9.80;;;;;;;1.99;100.00;99467.38;10390190;28;20041;-66
2021/12/04 20:03:29;;;;;;;13.02;9.98;;;;;;;2.10;100.00;99465.91;10395054;28;20429;-66
2021/12/04 20:14:14;;;;;;;14.23;9.23;;;;;;;1.78;100.00;99467.63;10407714;28;20042;-67
2021/12/04 20:19:36;;;;;;;13.75;9.10;;;;;;;1.89;100.00;99472.16;10393295;28;20061;-67
2021/12/04 20:24:59;;;;;;;12.52;8.65;;;;;;;1.80;100.00;99474.34;10401363;28;20050;-67
2021/12/04 21:27:08;;;;;;;16.02;10.35;;;;;;;2.02;100.00;99493.72;10401728;28;20048;-67
2021/12/04 21:49:27;;;;;;;11.95;9.10;;;;;;;2.03;100.00;99510.00;10402875;28;20503;-67
2021/12/04 21:54:49;;;;;;;12.20;9.57;;;;;;;1.91;100.00;99511.44;10397322;28;20055;-67
2021/12/04 22:11:34;;;;;;;16.33;10.80;;;;;;;1.86;100.00;99507.44;10390976;28;20049;-67
2021/12/04 23:01:49;;;;;;;13.75;10.40;;;;;;;1.98;100.00;99533.31;10377100;28;20057;-67
2021/12/04 23:41:57;;;;;;;16.42;11.07;;;;;;;2.13;100.00;99542.81;10408021;28;20401;-67
